• Join FlightAware (Why Join?)
  • Login
  • US Flag 
07:22PM EDT


 

Airport Tracker/Info


-or-


 

Live Flight TrackerFlight Track Log ✈ FIV602 ✈ 20-Aug-2013 ✈ KUGN - KAPC

Flight Track Log - Related Links

Times and Time Zones

All times are in EDT time to prevent confusion due to time zone crossing. See the FIV602 flight status page for this flight to view local times or setup timezone preferences in your user account.

Time Position Orientation Groundspeed Altitude Reporting Facility
EDT Latitude Longitude Course Direction KTS MPH feet Rate Location/Type
04:34PM 42.4000 -87.9000 230° Southwest 188 216 2,300  Level Chicago TRACON
04:35PM 42.3714 -87.9461 230° Southwest 231 266 3,900 3,180 Climbing Chicago Center
04:36PM 42.3267 -88.0242 232° Southwest 260 299 7,900 3,300 Climbing Chicago Center
04:37PM 42.2761 -88.1000 228° Southwest 273 314 10,800 2,460 Climbing Chicago Center
04:38PM 42.1925 -88.1711 212° Southwest 303 349 13,000 1,020 Climbing Chicago Center
04:39PM 42.1194 -88.2208 207° Southwest 308 354 13,000  Level Chicago Center
04:40PM 42.0850 -88.3256 246° West 307 353 13,000  Level Chicago Center
04:41PM 42.0772 -88.4450 265° West 325 374 13,100 1,380 Climbing Chicago Center
04:42PM 42.0717 -88.5744 267° West 346 398 15,900 2,520 Climbing Chicago Center
04:43PM 42.0617 -88.7336 265° West 357 411 18,400 2,100 Climbing Chicago Center
04:44PM 42.0633 -88.8756 271° West 379 436 20,300 1,800 Climbing Chicago Center
04:45PM 42.0642 -89.0206 270° West 390 449 22,200 1,680 Climbing Chicago Center
04:46PM 42.0669 -89.1697 271° West 400 460 23,900 1,620 Climbing Chicago Center
04:47PM 42.0667 -89.3297 270° West 429 494 25,600 1,500 Climbing Chicago Center
04:48PM 42.0667 -89.5228 270° West 437 503 27,100 1,320 Climbing Chicago Center
04:49PM 42.0669 -89.6894 270° West 449 517 28,400 1,260 Climbing Chicago Center
04:50PM 42.0694 -89.8700 271° West 455 524 29,800 1,200 Climbing Chicago Center
04:51PM 42.0706 -90.0219 271° West 458 527 31,000 1,320 Climbing Chicago Center
04:52PM 42.0731 -90.2250 271° West 455 524 32,600 1,320 Climbing Chicago Center
04:54PM 42.0817 -90.3914 274° West 451 519 33,800 1,200 Climbing Chicago Center
04:55PM 42.0897 -90.5567 274° West 447 514 35,100 1,140 Climbing Chicago Center
04:56PM 42.0947 -90.7214 272° West 445 512 36,200 840 Climbing Chicago Center
04:57PM 42.1022 -90.8878 274° West 447 514 36,900 720 Climbing Chicago Center
04:58PM 42.1078 -91.0917 272° West 457 526 37,700 480 Climbing Chicago Center
04:59PM 42.1144 -91.2600 273° West 454 522 38,000 300 Climbing Chicago Center
05:00PM 42.1206 -91.4297 273° West 454 522 38,400 660 Climbing Chicago Center
05:01PM 42.1256 -91.5961 272° West 451 519 39,400 720 Climbing Chicago Center
05:02PM 42.1308 -91.7578 273° West 438 504 40,000 240 Climbing Chicago Center
05:03PM 42.1367 -91.9544 272° West 441 507 40,000  Level Chicago Center
05:04PM 42.1411 -92.1225 272° West 449 517 40,000  Level Chicago Center
05:05PM 42.1458 -92.2883 272° West 447 514 40,000  Level Chicago Center
05:06PM 42.1500 -92.4544 272° West 448 516 40,000  Level Chicago Center
05:07PM 42.1533 -92.6200 272° West 447 514 40,000  Level Chicago Center
05:08PM 42.1575 -92.8186 272° West 445 512 40,000  Level Chicago Center
05:09PM 42.1619 -92.9839 272° West 446 513 40,000  Level Chicago Center
05:10PM 42.1647 -93.1500 271° West 446 513 40,000  Level Chicago Center
05:11PM 42.1672 -93.3142 271° West 445 512 40,000  Level Chicago Center
05:12PM 42.1692 -93.4783 271° West 441 507 40,000  Level Chicago Center
05:13PM 42.1731 -93.6728 272° West 436 502 40,000  Level Chicago Center
05:14PM 42.1744 -93.8339 271° West 434 499 40,000  Level Chicago Center
05:15PM 42.1756 -93.9925 271° West 429 494 40,000  Level Chicago Center
05:16PM 42.1772 -94.1522 271° West 429 494 40,000  Level Chicago Center
05:17PM 42.1797 -94.3119 271° West 430 495 40,000  Level Chicago Center
05:19PM 42.1825 -94.5517 271° West 430 495 40,000  Level Minneapolis Center
05:20PM 42.1833 -94.7136 270° West 432 497 40,000  Level Minneapolis Center
05:21PM 42.1864 -94.9050 271° West 429 494 40,000  Level Minneapolis Center
05:22PM 42.1833 -95.0622 269° West 424 488 40,000  Level Minneapolis Center
05:23PM 42.1842 -95.2225 270° West 427 491 40,000  Level Minneapolis Center
05:24PM 42.1839 -95.3831 270° West 429 494 40,000  Level Minneapolis Center
05:25PM 42.1842 -95.5439 270° West 431 496 40,000  Level Minneapolis Center
05:26PM 42.1833 -95.7353 270° West 428 493 40,000  Level Minneapolis Center
05:27PM 42.1825 -95.8961 270° West 429 494 40,000  Level Minneapolis Center
05:28PM 42.1811 -96.0567 269° West 431 496 40,000  Level Minneapolis Center
05:29PM 42.1797 -96.2172 269° West 431 496 40,000  Level Minneapolis Center
05:30PM 42.1781 -96.3775 269° West 431 496 40,000  Level Minneapolis Center
05:31PM 42.1781 -96.5381 270° West 430 495 40,000  Level Minneapolis Center
05:32PM 42.1739 -96.7311 268° West 432 497 40,000  Level Minneapolis Center
05:33PM 42.1728 -96.8914 270° West 431 496 40,000  Level Minneapolis Center
05:34PM 42.1697 -97.0503 269° West 428 493 40,000  Level Minneapolis Center
05:35PM 42.1669 -97.2094 269° West 427 491 40,000  Level Minneapolis Center
05:36PM 42.1653 -97.3689 269° West 426 490 40,000  Level Minneapolis Center
05:37PM 42.1603 -97.5586 268° West 425 489 40,000  Level Minneapolis Center
05:38PM 42.1578 -97.7153 269° West 421 484 40,000  Level Minneapolis Center
05:40PM 42.1542 -97.8589 268° West 419 482 40,000  Level Minneapolis Center
05:41PM 42.1506 -98.0447 269° West 416 479 40,000  Level Minneapolis Center
05:42PM 42.1464 -98.2011 268° West 418 481 40,000  Level Minneapolis Center
05:43PM 42.1428 -98.3561 268° West 416 479 40,000  Level Minneapolis Center
05:44PM 42.1383 -98.5133 268° West 421 484 40,000  Level Minneapolis Center
05:45PM 42.1336 -98.6683 268° West 418 481 40,000  Level Minneapolis Center
05:46PM 42.1286 -98.8253 268° West 420 483 40,000  Level Minneapolis Center
05:47PM 42.1231 -99.0139 268° West 421 484 40,000  Level Minneapolis Center
05:48PM 42.1181 -99.1700 268° West 420 483 40,000  Level Minneapolis Center
05:49PM 42.1119 -99.3261 267° West 419 482 40,000  Level Minneapolis Center
05:50PM 42.1058 -99.4831 267° West 422 486 40,000  Level Minneapolis Center
05:51PM 42.1006 -99.6389 267° West 419 482 40,000  Level Minneapolis Center
05:52PM 42.0956 -99.7944 268° West 417 480 40,000  Level Minneapolis Center
05:53PM 42.0875 -99.9822 267° West 419 482 40,000  Level Minneapolis Center
05:54PM 42.0789 -100.1400 266° West 422 486 40,000  Level Minneapolis Center
05:55PM 42.0728 -100.2928 267° West 415 478 40,000  Level Minneapolis Center
05:56PM 42.0661 -100.4458 267° West 413 475 40,000  Level Minneapolis Center
05:57PM 42.0600 -100.5986 267° West 411 473 40,000  Level Minneapolis Center
05:58PM 42.0483 -100.8267 266° West 408 470 40,000  Level Denver Center
05:59PM 42.0414 -100.9731 266° West 409 471 40,000  Level Denver Center
06:01PM 42.0328 -101.1458 266° West 414 476 40,000  Level Denver Center
06:02PM 42.0256 -101.2911 266° West 411 473 40,000  Level Denver Center
06:03PM 42.0172 -101.4381 266° West 413 475 40,000  Level Denver Center
06:04PM 42.0086 -101.6092 266° West 413 475 40,000  Level Denver Center
06:05PM 41.9992 -101.7561 265° West 413 475 40,000  Level Denver Center
06:06PM 41.9894 -101.9258 266° West 410 472 40,000  Level Denver Center
06:07PM 41.9806 -102.0731 265° West 413 475 40,000  Level Denver Center
06:08PM 41.9697 -102.2469 265° West 412 474 40,000  Level Denver Center
06:09PM 41.9611 -102.3922 265° West 408 470 40,000  Level Denver Center
06:10PM 41.9519 -102.5608 266° West 406 467 40,000  Level Denver Center
06:11PM 41.9411 -102.7067 264° West 410 472 40,000  Level Denver Center
06:12PM 41.9300 -102.8769 265° West 411 473 40,000  Level Denver Center
06:13PM 41.9200 -103.0206 265° West 405 466 40,000  Level Denver Center
06:14PM 41.9083 -103.1892 265° West 407 468 40,000  Level Denver Center
06:15PM 41.8986 -103.3331 265° West 406 467 40,000  Level Denver Center
06:16PM 41.8883 -103.4769 265° West 406 467 40,000  Level Denver Center
06:17PM 41.8761 -103.6450 264° West 405 466 40,000  Level Denver Center
06:18PM 41.8661 -103.7894 265° West 406 467 40,000  Level Denver Center
06:19PM 41.8528 -103.9586 264° West 407 468 40,000  Level Denver Center
06:20PM 41.8411 -104.1044 264° West 409 471 40,000  Level Denver Center
06:21PM 41.8275 -104.2742 264° West 408 470 40,000  Level Denver Center
06:22PM 41.8164 -104.4186 264° West 407 468 40,000  Level Denver Center
06:23PM 41.8033 -104.5892 264° West 410 472 40,000  Level Denver Center
06:24PM 41.7911 -104.7336 264° West 406 467 40,000  Level Denver Center
06:25PM 41.7786 -104.8781 263° West 406 467 40,000  Level Denver Center
06:26PM 41.7647 -105.0453 264° West 404 465 40,000  Level Denver Center
06:27PM 41.7522 -105.1914 264° West 408 470 40,000  Level Denver Center
06:28PM 41.7386 -105.3589 264° West 405 466 40,000  Level Denver Center
06:29PM 41.7250 -105.5011 263° West 403 464 40,000  Level Denver Center
06:31PM 41.7100 -105.6675 263° West 403 464 40,000  Level Denver Center
06:32PM 41.6969 -105.8086 263° West 401 461 40,000  Level Denver Center
06:33PM 41.6778 -105.9975 262° West 402 463 40,000  Level Denver Center
06:34PM 41.6658 -106.1397 264° West 402 463 40,000  Level Denver Center
06:35PM 41.6492 -106.3050 262° West 402 463 40,000  Level Denver Center
06:36PM 41.6350 -106.4464 262° West 401 461 40,000  Level Denver Center
06:37PM 41.6200 -106.6081 263° West 401 461 40,000  Level Denver Center
06:38PM 41.6064 -106.7517 263° West 405 466 40,000  Level Denver Center
06:39PM 41.5894 -106.9175 262° West 403 464 40,000  Level Denver Center
06:40PM 41.5744 -107.0608 262° West 407 468 40,000  Level Denver Center
06:41PM 41.5569 -107.2281 262° West 408 470 40,000  Level Denver Center
06:42PM 41.5414 -107.3722 262° West 410 472 40,000  Level Denver Center
06:43PM 41.5242 -107.5403 262° West 410 472 40,000  Level Denver Center
06:44PM 41.5078 -107.6839 261° West 410 472 40,000  Level Denver Center
06:45PM 41.4897 -107.8514 262° West 409 471 40,100 240 Climbing Denver Center
06:46PM 41.4739 -107.9961 262° West 408 470 40,600 480 Climbing Salt Lake Center
06:47PM 41.4550 -108.1622 261° West 409 471 41,200 480 Climbing Denver Center
06:48PM 41.4386 -108.3053 261° West 410 472 41,700 480 Climbing Denver Center
06:49PM 41.4219 -108.4475 261° West 404 465 42,200 480 Climbing Salt Lake Center
06:50PM 41.4031 -108.6128 261° West 405 466 42,700 360 Climbing Salt Lake Center
06:51PM 41.3861 -108.7522 261° West 400 460 43,000 120 Climbing Salt Lake Center
06:52PM 41.3656 -108.9197 261° West 406 467 43,000  Level Salt Lake Center
06:53PM 41.3453 -109.0664 260° West 412 474 43,000  Level Salt Lake Center
06:54PM 41.3269 -109.2181 261° West 425 489 43,000  Level Salt Lake Center
06:55PM 41.3069 -109.3889 261° West 416 479 43,000  Level Salt Lake Center
06:56PM 41.2892 -109.5333 261° West 413 475 43,000  Level Salt Lake Center
06:58PM 41.2717 -109.6769 261° West 412 474 43,000  Level Salt Lake Center
06:59PM 41.2500 -109.8444 260° West 413 475 43,000  Level Salt Lake Center
07:00PM 41.2322 -109.9883 261° West 412 474 43,000  Level Salt Lake Center
07:01PM 41.2094 -110.1553 260° West 412 474 43,000  Level Salt Lake Center
07:02PM 41.1900 -110.2969 260° West 408 470 43,000  Level Salt Lake Center
07:03PM 41.1683 -110.4644 260° West 413 475 43,000  Level Salt Lake Center
07:04PM 41.1489 -110.6081 260° West 413 475 43,000  Level Salt Lake Center
07:05PM 41.1261 -110.7744 260° West 411 473 43,000  Level Salt Lake Center
07:06PM 41.1067 -110.9161 260° West 413 475 43,000  Level Salt Lake Center
07:07PM 41.0853 -111.0669 259° West 416 479 43,000  Level Salt Lake Center
07:08PM 41.0642 -111.2169 259° West 415 478 43,000  Level Salt Lake Center
07:09PM 41.0436 -111.3675 260° West 415 478 43,000  Level Salt Lake Center
07:10PM 41.0175 -111.5478 259° West 414 476 43,000  Level Salt Lake Center
07:11PM 40.9961 -111.6972 259° West 411 473 43,000  Level Salt Lake Center
07:12PM 40.9742 -111.8508 259° West 410 472 43,000  Level Salt Lake Center
07:13PM 40.9492 -112.0103 258° West 435 501 43,000  Level Salt Lake Center
07:14PM 40.9272 -112.1625 259° West 419 482 43,000  Level Salt Lake Center
07:15PM 40.9047 -112.3119 259° West 414 476 43,000  Level Salt Lake Center
07:16PM 40.8817 -112.4653 259° West 422 486 43,000  Level Salt Lake Center
07:17PM 40.8581 -112.6181 258° West 424 488 43,000  Level Salt Lake Center
07:18PM 40.8342 -112.7694 258° West 423 487 43,000  Level Salt Lake Center
07:19PM 40.8056 -112.9531 258° West 424 488 43,000  Level Salt Lake Center
07:20PM 40.7819 -113.1050 258° West 424 488 43,000  Level Salt Lake Center
07:21PM 40.7581 -113.2558 258° West 421 484 43,000  Level Salt Lake Center
07:22PM 40.7350 -113.4067 259° West 420 483 43,000  Level Salt Lake Center
07:23PM 40.7083 -113.5578 257° West 424 488 43,000  Level Salt Lake Center
07:24PM 40.6825 -113.7069 257° West 420 483 43,000  Level Salt Lake Center
07:25PM 40.6531 -113.8881 258° West 422 486 43,000  Level Salt Lake Center
07:26PM 40.6289 -114.0400 258° West 425 489 43,000  Level Salt Lake Center
07:27PM 40.6028 -114.1892 257° West 421 484 43,000  Level Salt Lake Center
07:28PM 40.5767 -114.3408 257° West 424 488 43,000  Level Salt Lake Center
07:30PM 40.5514 -114.4928 258° West 426 490 43,000  Level Salt Lake Center
07:31PM 40.5242 -114.6444 257° West 427 491 43,000  Level Salt Lake Center
07:32PM 40.4939 -114.8239 258° West 426 490 43,000  Level Salt Lake Center
07:33PM 40.4683 -114.9692 257° West 426 490 43,000  Level Salt Lake Center
07:34PM 40.4392 -115.1400 257° West 429 494 43,000  Level Salt Lake Center
07:35PM 40.4128 -115.2872 257° West 432 497 43,000  Level Salt Lake Center
07:36PM 40.3853 -115.4353 256° West 435 501 43,000  Level Salt Lake Center
07:37PM 40.3547 -115.6083 257° West 437 503 43,000  Level Salt Lake Center
07:38PM 40.3261 -115.7558 256° West 437 503 43,000  Level Salt Lake Center
07:39PM 40.2917 -115.9283 255° West 439 505 43,000  Level Salt Lake Center
07:40PM 40.2639 -116.0758 256° West 438 504 43,000  Level Salt Lake Center
07:41PM 40.2319 -116.2503 257° West 440 506 43,000  Level Salt Lake Center
07:42PM 40.2033 -116.3975 256° West 436 502 43,000  Level Salt Lake Center
07:43PM 40.1703 -116.5683 256° West 433 498 43,000  Level Salt Lake Center
07:44PM 40.1414 -116.7158 256° West 433 498 43,000  Level Salt Lake Center
07:45PM 40.1081 -116.8889 256° West 436 502 43,000  Level Salt Lake Center
07:46PM 40.0794 -117.0369 256° West 436 502 43,000  Level Salt Lake Center
07:47PM 40.0503 -117.1847 256° West 437 503 43,000  Level Salt Lake Center
07:48PM 40.0167 -117.3558 256° West 436 502 43,000  Level Salt Lake Center
07:49PM 39.9886 -117.4981 256° West 433 498 43,000  Level Oakland Center
07:50PM 39.9575 -117.6475 255° West 437 503 43,000  Level Oakland Center
07:51PM 39.9269 -117.8028 256° West 434 499 43,000  Level Oakland Center
07:52PM 39.8956 -117.9561 255° West 438 504 43,000  Level Oakland Center
07:53PM 39.8647 -118.1089 255° West 438 504 43,000  Level Oakland Center
07:54PM 39.8319 -118.2608 254° West 437 503 43,000  Level Oakland Center
07:55PM 39.8014 -118.4147 256° West 440 506 43,000  Level Oakland Center
07:56PM 39.7683 -118.5667 254° West 441 507 43,000  Level Oakland Center
07:57PM 39.7300 -118.7481 255° West 438 504 43,000  Level Oakland Center
07:58PM 39.6989 -118.9011 255° West 442 509 43,000  Level Oakland Center
07:59PM 39.6656 -119.0517 254° West 441 507 43,000  Level Oakland Center
08:00PM 39.6308 -119.2031 253° West 441 507 43,000  Level Oakland Center
08:01PM 39.5981 -119.3550 254° West 441 507 43,000  Level Oakland Center
08:02PM 39.5647 -119.5050 254° West 437 503 43,000 -300 Level Oakland Center
08:03PM 39.5186 -119.6842 252° West 439 505 42,500 -840 Descending Oakland Center
08:04PM 39.4536 -119.8175 238° Southwest 438 504 41,400 -1,080 Descending Oakland Center
08:05PM 39.3878 -119.9511 238° Southwest 440 506 40,400 -1,080 Descending Oakland Center
08:06PM 39.3222 -120.0822 237° Southwest 436 502 39,300 -1,140 Descending Oakland Center
08:07PM 39.2581 -120.2164 238° Southwest 434 499 38,100 -1,080 Descending Oakland Center
08:08PM 39.1908 -120.3522 237° Southwest 447 514 37,100 -1,080 Descending Oakland Center
08:09PM 39.1242 -120.4883 238° Southwest 449 517 36,000 -720 Descending Oakland Center
08:10PM 39.0567 -120.6233 237° Southwest 450 518 35,700 -720 Descending Oakland Center
08:12PM 38.9736 -120.7419 228° Southwest 447 514 34,600 -840 Descending Oakland Center
08:13PM 38.8917 -120.8633 229° Southwest 450 518 34,000 -300 Descending Oakland Center
08:14PM 38.8117 -121.0333 239° Southwest 465 535 34,000 -300 Level Oakland Center
08:15PM 38.7442 -121.1753 239° Southwest 470 541 33,400 -1,500 Descending Oakland Center
08:16PM 38.6828 -121.3067 239° Southwest 463 533 31,000 -3,180 Descending Oakland Center
08:17PM 38.6161 -121.4428 238° Southwest 456 525 26,900 -3,960 Descending Oakland Center
08:18PM 38.5539 -121.5778 240° Southwest 443 510 22,900 -4,140 Descending Oakland Center
08:19PM 38.4914 -121.7261 242° Southwest 405 466 18,500 -4,140 Descending Oakland Center
08:20PM 38.4411 -121.8453 242° Southwest 388 447 14,500 -3,720 Descending Oakland Center
08:21PM 38.3944 -121.9578 242° Southwest 372 428 11,000 -3,300 Descending Oakland Center
08:22PM 38.3522 -122.0597 242° Southwest 340 391 7,800 -2,940 Descending Oakland Center
08:23PM 38.3153 -122.1517 243° Southwest 308 354 5,000 -2,640 Descending Oakland Center
08:24PM 38.2997 -122.2297 256° West 254 292 2,500 -1,800 Descending Oakland Center
08:25PM 38.2833 -122.2681 241° Southwest 192 221 1,400 -1,140 Descending Oakland Center